sensor_id;sensor_type;location;lat;lon;timestamp;temperature;humidity
8214;DHT22;4148;47.974;7.824;2023-08-21T00:01:35;23.30;1.00
8214;DHT22;4148;47.974;7.824;2023-08-21T00:04:03;23.30;1.00
8214;DHT22;4148;47.974;7.824;2023-08-21T00:06:31;23.30;1.00
8214;DHT22;4148;47.974;7.824;2023-08-21T00:09:00;23.30;1.00
8214;DHT22;4148;47.974;7.824;2023-08-21T00:11:28;23.20;1.00
8214;DHT22;4148;47.974;7.824;2023-08-21T00:13:56;23.20;1.00
8214;DHT22;4148;47.974;7.824;2023-08-21T00:16:24;23.20;1.00
8214;DHT22;4148;47.974;7.824;2023-08-21T00:18:54;23.10;1.00
8214;DHT22;4148;47.974;7.824;2023-08-21T00:21:22;23.10;1.00
8214;DHT22;4148;47.974;7.824;2023-08-21T00:23:50;23.00;1.00
8214;DHT22;4148;47.974;7.824;2023-08-21T00:26:18;22.90;1.00
8214;DHT22;4148;47.974;7.824;2023-08-21T00:28:46;22.90;1.00
8214;DHT22;4148;47.974;7.824;2023-08-21T00:31:13;22.90;1.00
8214;DHT22;4148;47.974;7.824;2023-08-21T00:33:41;22.90;1.00
8214;DHT22;4148;47.974;7.824;2023-08-21T00:36:10;22.90;1.00
8214;DHT22;4148;47.974;7.824;2023-08-21T00:38:38;22.90;1.00
8214;DHT22;4148;47.974;7.824;2023-08-21T00:41:06;23.00;1.00
8214;DHT22;4148;47.974;7.824;2023-08-21T00:43:34;23.00;1.00
8214;DHT22;4148;47.974;7.824;2023-08-21T00:46:02;23.00;1.00
8214;DHT22;4148;47.974;7.824;2023-08-21T00:48:31;22.90;1.00
8214;DHT22;4148;47.974;7.824;2023-08-21T00:50:59;22.90;1.00
8214;DHT22;4148;47.974;7.824;2023-08-21T00:53:28;22.90;1.00
8214;DHT22;4148;47.974;7.824;2023-08-21T00:55:56;22.90;1.00
8214;DHT22;4148;47.974;7.824;2023-08-21T00:58:24;23.00;1.00
8214;DHT22;4148;47.974;7.824;2023-08-21T01:00:52;23.00;1.00
8214;DHT22;4148;47.974;7.824;2023-08-21T01:03:20;22.90;1.00
8214;DHT22;4148;47.974;7.824;2023-08-21T01:05:48;22.90;1.00
8214;DHT22;4148;47.974;7.824;2023-08-21T01:08:21;22.90;1.00
8214;DHT22;4148;47.974;7.824;2023-08-21T01:10:56;22.90;1.00
8214;DHT22;4148;47.974;7.824;2023-08-21T01:13:34;22.90;1.00
8214;DHT22;4148;47.974;7.824;2023-08-21T01:16:08;22.90;1.00
8214;DHT22;4148;47.974;7.824;2023-08-21T01:18:37;22.90;1.00
8214;DHT22;4148;47.974;7.824;2023-08-21T01:21:06;22.90;1.00
8214;DHT22;4148;47.974;7.824;2023-08-21T01:23:37;22.90;1.00
8214;DHT22;4148;47.974;7.824;2023-08-21T01:26:05;22.90;1.00
8214;DHT22;4148;47.974;7.824;2023-08-21T01:28:34;22.90;1.00
8214;DHT22;4148;47.974;7.824;2023-08-21T01:31:07;22.80;1.00
8214;DHT22;4148;47.974;7.824;2023-08-21T01:33:42;22.70;1.00
8214;DHT22;4148;47.974;7.824;2023-08-21T01:36:12;22.70;1.00
8214;DHT22;4148;47.974;7.824;2023-08-21T01:38:41;22.70;1.00
8214;DHT22;4148;47.974;7.824;2023-08-21T01:41:10;22.60;1.00
8214;DHT22;4148;47.974;7.824;2023-08-21T01:43:38;22.60;1.00
8214;DHT22;4148;47.974;7.824;2023-08-21T01:46:06;22.50;1.00
8214;DHT22;4148;47.974;7.824;2023-08-21T01:48:34;22.50;1.00
8214;DHT22;4148;47.974;7.824;2023-08-21T01:51:02;22.50;1.00
8214;DHT22;4148;47.974;7.824;2023-08-21T01:53:30;22.40;1.00
8214;DHT22;4148;47.974;7.824;2023-08-21T01:55:59;22.50;1.00
8214;DHT22;4148;47.974;7.824;2023-08-21T01:58:27;22.50;1.00
8214;DHT22;4148;47.974;7.824;2023-08-21T02:00:55;22.40;1.00
8214;DHT22;4148;47.974;7.824;2023-08-21T02:03:25;22.40;1.00
8214;DHT22;4148;47.974;7.824;2023-08-21T02:05:55;22.40;1.00
8214;DHT22;4148;47.974;7.824;2023-08-21T02:08:30;22.30;1.00
8214;DHT22;4148;47.974;7.824;2023-08-21T02:10:59;22.30;1.00
8214;DHT22;4148;47.974;7.824;2023-08-21T02:13:27;22.20;1.00
8214;DHT22;4148;47.974;7.824;2023-08-21T02:15:55;22.20;1.00
8214;DHT22;4148;47.974;7.824;2023-08-21T02:18:23;22.10;1.00
8214;DHT22;4148;47.974;7.824;2023-08-21T02:20:51;22.10;1.00
8214;DHT22;4148;47.974;7.824;2023-08-21T02:23:19;22.10;1.00
8214;DHT22;4148;47.974;7.824;2023-08-21T02:25:46;22.00;1.00
8214;DHT22;4148;47.974;7.824;2023-08-21T02:28:17;22.10;1.00
8214;DHT22;4148;47.974;7.824;2023-08-21T02:30:45;22.00;1.00
8214;DHT22;4148;47.974;7.824;2023-08-21T02:33:13;22.00;1.00
8214;DHT22;4148;47.974;7.824;2023-08-21T02:35:41;21.90;1.00
8214;DHT22;4148;47.974;7.824;2023-08-21T02:38:08;21.80;1.00
8214;DHT22;4148;47.974;7.824;2023-08-21T02:40:36;21.80;1.00
8214;DHT22;4148;47.974;7.824;2023-08-21T02:43:04;21.70;1.00
8214;DHT22;4148;47.974;7.824;2023-08-21T02:45:33;21.80;1.00
8214;DHT22;4148;47.974;7.824;2023-08-21T02:48:01;21.80;1.00
8214;DHT22;4148;47.974;7.824;2023-08-21T02:50:29;21.80;1.00
8214;DHT22;4148;47.974;7.824;2023-08-21T02:52:57;21.90;1.00
8214;DHT22;4148;47.974;7.824;2023-08-21T02:55:25;21.90;1.00
8214;DHT22;4148;47.974;7.824;2023-08-21T02:57:53;21.90;1.00
8214;DHT22;4148;47.974;7.824;2023-08-21T03:00:21;21.90;1.00
8214;DHT22;4148;47.974;7.824;2023-08-21T03:02:50;21.90;1.00
8214;DHT22;4148;47.974;7.824;2023-08-21T03:05:18;21.90;1.00
8214;DHT22;4148;47.974;7.824;2023-08-21T03:07:46;22.00;1.00
8214;DHT22;4148;47.974;7.824;2023-08-21T03:10:14;21.90;1.00
8214;DHT22;4148;47.974;7.824;2023-08-21T03:12:42;21.90;1.00
8214;DHT22;4148;47.974;7.824;2023-08-21T03:15:10;21.80;1.00
8214;DHT22;4148;47.974;7.824;2023-08-21T03:17:38;21.80;1.00
8214;DHT22;4148;47.974;7.824;2023-08-21T03:20:08;21.90;1.00
8214;DHT22;4148;47.974;7.824;2023-08-21T03:22:36;21.90;1.00
8214;DHT22;4148;47.974;7.824;2023-08-21T03:25:05;21.90;1.00
8214;DHT22;4148;47.974;7.824;2023-08-21T03:27:33;21.80;1.00
8214;DHT22;4148;47.974;7.824;2023-08-21T03:30:06;21.90;1.00
8214;DHT22;4148;47.974;7.824;2023-08-21T03:32:36;21.80;1.00
8214;DHT22;4148;47.974;7.824;2023-08-21T03:35:07;21.90;1.00
8214;DHT22;4148;47.974;7.824;2023-08-21T03:37:35;21.80;1.00
8214;DHT22;4148;47.974;7.824;2023-08-21T03:40:03;21.80;1.00
8214;DHT22;4148;47.974;7.824;2023-08-21T03:42:31;21.80;1.00
8214;DHT22;4148;47.974;7.824;2023-08-21T03:44:59;21.80;1.00
8214;DHT22;4148;47.974;7.824;2023-08-21T03:47:27;21.70;1.00
8214;DHT22;4148;47.974;7.824;2023-08-21T03:49:54;21.60;1.00
8214;DHT22;4148;47.974;7.824;2023-08-21T03:52:24;21.70;1.00
8214;DHT22;4148;47.974;7.824;2023-08-21T03:54:51;21.70;1.00
8214;DHT22;4148;47.974;7.824;2023-08-21T03:57:19;21.70;1.00
8214;DHT22;4148;47.974;7.824;2023-08-21T03:59:47;21.80;1.00
8214;DHT22;4148;47.974;7.824;2023-08-21T04:02:15;21.80;1.00
8214;DHT22;4148;47.974;7.824;2023-08-21T04:04:43;21.80;1.00
8214;DHT22;4148;47.974;7.824;2023-08-21T04:07:11;21.80;1.00
8214;DHT22;4148;47.974;7.824;2023-08-21T04:09:40;21.90;1.00
8214;DHT22;4148;47.974;7.824;2023-08-21T04:12:08;21.80;1.00
8214;DHT22;4148;47.974;7.824;2023-08-21T04:14:36;21.90;1.00
8214;DHT22;4148;47.974;7.824;2023-08-21T04:17:04;21.80;1.00
8214;DHT22;4148;47.974;7.824;2023-08-21T04:19:32;21.80;1.00
8214;DHT22;4148;47.974;7.824;2023-08-21T04:22:00;21.80;1.00
8214;DHT22;4148;47.974;7.824;2023-08-21T04:24:29;21.80;1.00
8214;DHT22;4148;47.974;7.824;2023-08-21T04:26:58;21.80;1.00
8214;DHT22;4148;47.974;7.824;2023-08-21T04:29:26;21.70;1.00
8214;DHT22;4148;47.974;7.824;2023-08-21T04:31:54;21.70;1.00
8214;DHT22;4148;47.974;7.824;2023-08-21T04:34:21;21.70;1.00
8214;DHT22;4148;47.974;7.824;2023-08-21T04:36:49;21.70;1.00
8214;DHT22;4148;47.974;7.824;2023-08-21T04:39:18;21.60;1.00
8214;DHT22;4148;47.974;7.824;2023-08-21T04:41:46;21.60;1.00
8214;DHT22;4148;47.974;7.824;2023-08-21T04:44:15;21.60;1.00
8214;DHT22;4148;47.974;7.824;2023-08-21T04:46:48;21.60;1.00
8214;DHT22;4148;47.974;7.824;2023-08-21T04:49:16;21.60;1.00
8214;DHT22;4148;47.974;7.824;2023-08-21T04:51:44;21.50;1.00
8214;DHT22;4148;47.974;7.824;2023-08-21T04:54:12;21.50;1.00
8214;DHT22;4148;47.974;7.824;2023-08-21T04:56:40;21.60;1.00
8214;DHT22;4148;47.974;7.824;2023-08-21T04:59:08;21.60;1.00
8214;DHT22;4148;47.974;7.824;2023-08-21T05:01:37;21.60;1.00
8214;DHT22;4148;47.974;7.824;2023-08-21T05:04:05;21.50;1.00
8214;DHT22;4148;47.974;7.824;2023-08-21T05:06:33;21.50;1.00
8214;DHT22;4148;47.974;7.824;2023-08-21T05:09:01;21.50;1.00
8214;DHT22;4148;47.974;7.824;2023-08-21T05:11:28;21.60;1.00
8214;DHT22;4148;47.974;7.824;2023-08-21T05:13:56;21.60;1.00
8214;DHT22;4148;47.974;7.824;2023-08-21T05:16:28;21.60;1.00
8214;DHT22;4148;47.974;7.824;2023-08-21T05:18:57;21.50;1.00
8214;DHT22;4148;47.974;7.824;2023-08-21T05:21:25;21.50;1.00
8214;DHT22;4148;47.974;7.824;2023-08-21T05:23:53;21.50;1.00
8214;DHT22;4148;47.974;7.824;2023-08-21T05:26:21;21.50;1.00
8214;DHT22;4148;47.974;7.824;2023-08-21T05:28:49;21.60;1.00
8214;DHT22;4148;47.974;7.824;2023-08-21T05:31:16;21.60;1.00
8214;DHT22;4148;47.974;7.824;2023-08-21T05:33:44;21.70;1.00
8214;DHT22;4148;47.974;7.824;2023-08-21T05:36:14;21.80;1.00
8214;DHT22;4148;47.974;7.824;2023-08-21T05:38:42;21.80;1.00
8214;DHT22;4148;47.974;7.824;2023-08-21T05:41:09;21.90;1.00
8214;DHT22;4148;47.974;7.824;2023-08-21T05:43:38;22.00;1.00
8214;DHT22;4148;47.974;7.824;2023-08-21T05:46:06;22.00;1.00
8214;DHT22;4148;47.974;7.824;2023-08-21T05:48:34;22.00;1.00
8214;DHT22;4148;47.974;7.824;2023-08-21T05:51:02;22.10;1.00
8214;DHT22;4148;47.974;7.824;2023-08-21T05:53:32;22.10;1.00
8214;DHT22;4148;47.974;7.824;2023-08-21T05:56:00;22.20;1.00
8214;DHT22;4148;47.974;7.824;2023-08-21T05:58:28;22.20;1.00
8214;DHT22;4148;47.974;7.824;2023-08-21T06:00:58;22.20;1.00
8214;DHT22;4148;47.974;7.824;2023-08-21T06:03:26;22.30;1.00
8214;DHT22;4148;47.974;7.824;2023-08-21T06:05:54;22.30;1.00
8214;DHT22;4148;47.974;7.824;2023-08-21T06:08:22;22.30;1.00
8214;DHT22;4148;47.974;7.824;2023-08-21T06:10:54;22.40;1.00
8214;DHT22;4148;47.974;7.824;2023-08-21T06:13:22;22.40;1.00
8214;DHT22;4148;47.974;7.824;2023-08-21T06:15:50;22.50;1.00
8214;DHT22;4148;47.974;7.824;2023-08-21T06:18:18;22.50;1.00
8214;DHT22;4148;47.974;7.824;2023-08-21T06:20:46;22.60;1.00
8214;DHT22;4148;47.974;7.824;2023-08-21T06:23:14;22.60;1.00
8214;DHT22;4148;47.974;7.824;2023-08-21T06:25:42;22.70;1.00
8214;DHT22;4148;47.974;7.824;2023-08-21T06:28:12;22.70;1.00
8214;DHT22;4148;47.974;7.824;2023-08-21T06:30:40;22.80;1.00
8214;DHT22;4148;47.974;7.824;2023-08-21T06:33:08;22.90;1.00
8214;DHT22;4148;47.974;7.824;2023-08-21T06:35:36;22.90;1.00
8214;DHT22;4148;47.974;7.824;2023-08-21T06:38:04;23.00;1.00
8214;DHT22;4148;47.974;7.824;2023-08-21T06:40:32;23.00;1.00
8214;DHT22;4148;47.974;7.824;2023-08-21T06:43:00;23.10;1.00
8214;DHT22;4148;47.974;7.824;2023-08-21T06:45:31;23.20;1.00
8214;DHT22;4148;47.974;7.824;2023-08-21T06:47:59;23.20;1.00
8214;DHT22;4148;47.974;7.824;2023-08-21T06:50:27;23.30;1.00
8214;DHT22;4148;47.974;7.824;2023-08-21T06:52:55;23.40;1.00
8214;DHT22;4148;47.974;7.824;2023-08-21T06:55:23;23.50;1.00
8214;DHT22;4148;47.974;7.824;2023-08-21T06:57:51;23.50;1.00
8214;DHT22;4148;47.974;7.824;2023-08-21T07:00:19;23.70;1.00
8214;DHT22;4148;47.974;7.824;2023-08-21T07:02:48;23.70;1.00
8214;DHT22;4148;47.974;7.824;2023-08-21T07:05:16;23.80;1.00
8214;DHT22;4148;47.974;7.824;2023-08-21T07:07:44;23.90;1.00
8214;DHT22;4148;47.974;7.824;2023-08-21T07:10:12;24.00;1.00
8214;DHT22;4148;47.974;7.824;2023-08-21T07:12:40;24.00;1.00
8214;DHT22;4148;47.974;7.824;2023-08-21T07:15:09;24.10;1.00
8214;DHT22;4148;47.974;7.824;2023-08-21T07:17:37;24.10;1.00
8214;DHT22;4148;47.974;7.824;2023-08-21T07:20:07;24.20;1.00
8214;DHT22;4148;47.974;7.824;2023-08-21T07:22:35;24.30;1.00
8214;DHT22;4148;47.974;7.824;2023-08-21T07:25:05;24.30;99.90
8214;DHT22;4148;47.974;7.824;2023-08-21T07:27:33;24.40;99.90
8214;DHT22;4148;47.974;7.824;2023-08-21T07:30:00;24.60;99.90
8214;DHT22;4148;47.974;7.824;2023-08-21T07:32:29;24.60;99.90
8214;DHT22;4148;47.974;7.824;2023-08-21T07:34:57;24.70;99.90
8214;DHT22;4148;47.974;7.824;2023-08-21T07:37:26;24.80;98.40
8214;DHT22;4148;47.974;7.824;2023-08-21T07:39:54;24.90;26.30
8214;DHT22;4148;47.974;7.824;2023-08-21T07:42:24;25.00;35.90
8214;DHT22;4148;47.974;7.824;2023-08-21T07:44:52;25.20;1.00
8214;DHT22;4148;47.974;7.824;2023-08-21T07:47:20;25.30;99.90
8214;DHT22;4148;47.974;7.824;2023-08-21T07:49:47;25.50;99.90
8214;DHT22;4148;47.974;7.824;2023-08-21T07:52:15;25.60;99.90
8214;DHT22;4148;47.974;7.824;2023-08-21T07:54:45;25.70;99.90
8214;DHT22;4148;47.974;7.824;2023-08-21T07:57:12;25.90;1.00
8214;DHT22;4148;47.974;7.824;2023-08-21T07:59:40;26.00;99.90
8214;DHT22;4148;47.974;7.824;2023-08-21T08:02:08;26.10;99.90
8214;DHT22;4148;47.974;7.824;2023-08-21T08:04:36;26.30;1.00
8214;DHT22;4148;47.974;7.824;2023-08-21T08:07:04;26.50;99.90
8214;DHT22;4148;47.974;7.824;2023-08-21T08:09:32;26.90;99.90
8214;DHT22;4148;47.974;7.824;2023-08-21T08:12:01;27.10;99.90
8214;DHT22;4148;47.974;7.824;2023-08-21T08:14:31;27.40;99.90
8214;DHT22;4148;47.974;7.824;2023-08-21T08:16:59;27.70;99.90
8214;DHT22;4148;47.974;7.824;2023-08-21T08:19:28;27.90;1.00
8214;DHT22;4148;47.974;7.824;2023-08-21T08:21:56;28.10;99.90
8214;DHT22;4148;47.974;7.824;2023-08-21T08:24:23;28.50;1.00
8214;DHT22;4148;47.974;7.824;2023-08-21T08:26:51;28.70;1.00
8214;DHT22;4148;47.974;7.824;2023-08-21T08:29:20;28.90;99.90
8214;DHT22;4148;47.974;7.824;2023-08-21T08:31:48;29.10;99.90
8214;DHT22;4148;47.974;7.824;2023-08-21T08:34:16;29.40;99.90
8214;DHT22;4148;47.974;7.824;2023-08-21T08:36:47;29.50;99.90
8214;DHT22;4148;47.974;7.824;2023-08-21T08:39:15;29.70;99.90
8214;DHT22;4148;47.974;7.824;2023-08-21T08:41:48;30.00;99.90
8214;DHT22;4148;47.974;7.824;2023-08-21T08:44:20;30.40;94.20
8214;DHT22;4148;47.974;7.824;2023-08-21T08:46:49;30.60;8.10
8214;DHT22;4148;47.974;7.824;2023-08-21T08:49:19;30.70;1.00
8214;DHT22;4148;47.974;7.824;2023-08-21T08:51:49;30.80;1.00
8214;DHT22;4148;47.974;7.824;2023-08-21T08:54:17;31.00;1.00
8214;DHT22;4148;47.974;7.824;2023-08-21T08:56:46;31.10;1.00
8214;DHT22;4148;47.974;7.824;2023-08-21T08:59:15;31.40;1.00
8214;DHT22;4148;47.974;7.824;2023-08-21T09:01:44;31.60;1.00
8214;DHT22;4148;47.974;7.824;2023-08-21T09:04:13;31.70;1.00
8214;DHT22;4148;47.974;7.824;2023-08-21T09:06:41;31.70;1.00
8214;DHT22;4148;47.974;7.824;2023-08-21T09:09:08;31.80;1.00
8214;DHT22;4148;47.974;7.824;2023-08-21T09:11:42;32.20;1.00
8214;DHT22;4148;47.974;7.824;2023-08-21T09:14:11;32.20;1.00
8214;DHT22;4148;47.974;7.824;2023-08-21T09:17:00;32.50;1.00
8214;DHT22;4148;47.974;7.824;2023-08-21T09:19:30;32.60;1.00
8214;DHT22;4148;47.974;7.824;2023-08-21T09:21:58;32.50;1.00
8214;DHT22;4148;47.974;7.824;2023-08-21T09:24:26;32.70;1.00
8214;DHT22;4148;47.974;7.824;2023-08-21T09:26:54;32.80;1.00
8214;DHT22;4148;47.974;7.824;2023-08-21T09:29:23;33.00;1.00
8214;DHT22;4148;47.974;7.824;2023-08-21T09:31:56;33.00;1.00
8214;DHT22;4148;47.974;7.824;2023-08-21T09:34:33;33.00;1.00
8214;DHT22;4148;47.974;7.824;2023-08-21T09:37:05;33.10;1.00
8214;DHT22;4148;47.974;7.824;2023-08-21T09:39:34;33.30;99.90
8214;DHT22;4148;47.974;7.824;2023-08-21T09:42:05;33.60;99.90
8214;DHT22;4148;47.974;7.824;2023-08-21T09:44:38;33.60;99.90
8214;DHT22;4148;47.974;7.824;2023-08-21T09:47:08;33.60;99.90
8214;DHT22;4148;47.974;7.824;2023-08-21T09:49:39;33.60;99.90
8214;DHT22;4148;47.974;7.824;2023-08-21T09:52:09;33.70;99.90
8214;DHT22;4148;47.974;7.824;2023-08-21T09:54:38;33.70;99.90
8214;DHT22;4148;47.974;7.824;2023-08-21T09:57:06;33.70;99.90
8214;DHT22;4148;47.974;7.824;2023-08-21T09:59:35;33.80;99.90
8214;DHT22;4148;47.974;7.824;2023-08-21T10:02:06;34.00;99.90
8214;DHT22;4148;47.974;7.824;2023-08-21T10:04:35;34.20;99.90
8214;DHT22;4148;47.974;7.824;2023-08-21T10:07:06;34.20;99.90
8214;DHT22;4148;47.974;7.824;2023-08-21T10:09:35;34.30;99.90
8214;DHT22;4148;47.974;7.824;2023-08-21T10:12:03;34.40;99.90
8214;DHT22;4148;47.974;7.824;2023-08-21T10:14:33;34.70;99.90
8214;DHT22;4148;47.974;7.824;2023-08-21T10:17:01;34.50;99.90
8214;DHT22;4148;47.974;7.824;2023-08-21T10:19:32;34.70;99.90
8214;DHT22;4148;47.974;7.824;2023-08-21T10:22:00;34.70;99.90
8214;DHT22;4148;47.974;7.824;2023-08-21T10:24:36;34.90;99.90
8214;DHT22;4148;47.974;7.824;2023-08-21T10:27:06;35.30;99.90
8214;DHT22;4148;47.974;7.824;2023-08-21T10:29:34;35.40;99.90
8214;DHT22;4148;47.974;7.824;2023-08-21T10:32:04;35.20;99.90
8214;DHT22;4148;47.974;7.824;2023-08-21T10:34:34;35.20;99.90
8214;DHT22;4148;47.974;7.824;2023-08-21T10:37:06;35.20;99.90
8214;DHT22;4148;47.974;7.824;2023-08-21T10:39:38;35.30;99.90
8214;DHT22;4148;47.974;7.824;2023-08-21T10:42:08;35.70;99.90
8214;DHT22;4148;47.974;7.824;2023-08-21T10:44:50;35.70;99.90
8214;DHT22;4148;47.974;7.824;2023-08-21T10:47:20;35.80;99.90
8214;DHT22;4148;47.974;7.824;2023-08-21T10:49:51;35.80;99.90
8214;DHT22;4148;47.974;7.824;2023-08-21T10:52:24;35.90;99.90
8214;DHT22;4148;47.974;7.824;2023-08-21T10:54:54;36.00;99.90
8214;DHT22;4148;47.974;7.824;2023-08-21T10:57:24;36.10;99.90
8214;DHT22;4148;47.974;7.824;2023-08-21T10:59:53;36.20;99.90
8214;DHT22;4148;47.974;7.824;2023-08-21T11:02:22;36.30;99.90
8214;DHT22;4148;47.974;7.824;2023-08-21T11:04:50;36.40;99.90
8214;DHT22;4148;47.974;7.824;2023-08-21T11:07:19;36.50;99.90
8214;DHT22;4148;47.974;7.824;2023-08-21T11:09:47;36.60;99.90
8214;DHT22;4148;47.974;7.824;2023-08-21T11:12:18;36.80;99.90
8214;DHT22;4148;47.974;7.824;2023-08-21T11:14:46;36.80;99.90
8214;DHT22;4148;47.974;7.824;2023-08-21T11:17:14;36.80;99.90
8214;DHT22;4148;47.974;7.824;2023-08-21T11:19:42;36.80;99.90
8214;DHT22;4148;47.974;7.824;2023-08-21T11:22:11;36.60;99.90
8214;DHT22;4148;47.974;7.824;2023-08-21T11:24:41;36.30;99.90
8214;DHT22;4148;47.974;7.824;2023-08-21T11:27:09;36.30;99.90
8214;DHT22;4148;47.974;7.824;2023-08-21T11:29:41;36.60;99.90
8214;DHT22;4148;47.974;7.824;2023-08-21T11:32:10;36.60;99.90
8214;DHT22;4148;47.974;7.824;2023-08-21T11:34:38;36.80;99.90
8214;DHT22;4148;47.974;7.824;2023-08-21T11:37:06;36.30;99.90
8214;DHT22;4148;47.974;7.824;2023-08-21T11:39:45;36.20;99.90
8214;DHT22;4148;47.974;7.824;2023-08-21T11:42:13;36.20;99.90
8214;DHT22;4148;47.974;7.824;2023-08-21T11:44:44;36.20;99.90
8214;DHT22;4148;47.974;7.824;2023-08-21T11:47:13;35.80;99.90
8214;DHT22;4148;47.974;7.824;2023-08-21T11:49:42;36.10;99.90
8214;DHT22;4148;47.974;7.824;2023-08-21T11:52:11;36.00;99.90
8214;DHT22;4148;47.974;7.824;2023-08-21T11:54:41;35.80;99.90
8214;DHT22;4148;47.974;7.824;2023-08-21T11:57:12;35.90;99.90
8214;DHT22;4148;47.974;7.824;2023-08-21T11:59:40;35.90;99.90
8214;DHT22;4148;47.974;7.824;2023-08-21T12:02:14;35.80;99.90
8214;DHT22;4148;47.974;7.824;2023-08-21T12:04:42;35.80;99.90
8214;DHT22;4148;47.974;7.824;2023-08-21T12:07:12;35.70;99.90
8214;DHT22;4148;47.974;7.824;2023-08-21T12:09:46;35.70;99.90
8214;DHT22;4148;47.974;7.824;2023-08-21T12:12:14;35.60;99.90
8214;DHT22;4148;47.974;7.824;2023-08-21T12:14:42;35.20;99.90
8214;DHT22;4148;47.974;7.824;2023-08-21T12:17:12;35.20;99.90
8214;DHT22;4148;47.974;7.824;2023-08-21T12:19:40;35.10;99.90
8214;DHT22;4148;47.974;7.824;2023-08-21T12:22:08;35.00;99.90
8214;DHT22;4148;47.974;7.824;2023-08-21T12:24:36;34.80;99.90
8214;DHT22;4148;47.974;7.824;2023-08-21T12:27:06;34.90;99.90
8214;DHT22;4148;47.974;7.824;2023-08-21T12:29:34;35.00;99.90
8214;DHT22;4148;47.974;7.824;2023-08-21T12:32:02;34.90;99.90
8214;DHT22;4148;47.974;7.824;2023-08-21T12:34:31;34.80;99.90
8214;DHT22;4148;47.974;7.824;2023-08-21T12:36:59;34.80;99.90
8214;DHT22;4148;47.974;7.824;2023-08-21T12:39:27;34.50;99.90
8214;DHT22;4148;47.974;7.824;2023-08-21T12:41:55;34.50;99.90
8214;DHT22;4148;47.974;7.824;2023-08-21T12:44:23;34.30;99.90
8214;DHT22;4148;47.974;7.824;2023-08-21T12:46:51;34.20;99.90
8214;DHT22;4148;47.974;7.824;2023-08-21T12:49:18;34.20;99.90
8214;DHT22;4148;47.974;7.824;2023-08-21T12:51:48;34.20;99.90
8214;DHT22;4148;47.974;7.824;2023-08-21T12:54:16;34.20;99.90
8214;DHT22;4148;47.974;7.824;2023-08-21T12:56:44;34.00;99.90
8214;DHT22;4148;47.974;7.824;2023-08-21T12:59:13;34.00;99.90
8214;DHT22;4148;47.974;7.824;2023-08-21T13:01:43;33.80;99.90
8214;DHT22;4148;47.974;7.824;2023-08-21T13:04:11;33.70;99.90
8214;DHT22;4148;47.974;7.824;2023-08-21T13:06:39;33.60;99.90
8214;DHT22;4148;47.974;7.824;2023-08-21T13:09:08;33.60;99.90
8214;DHT22;4148;47.974;7.824;2023-08-21T13:11:36;33.60;99.90
8214;DHT22;4148;47.974;7.824;2023-08-21T13:14:04;33.50;99.90
8214;DHT22;4148;47.974;7.824;2023-08-21T13:16:32;33.50;99.90
8214;DHT22;4148;47.974;7.824;2023-08-21T13:19:00;33.50;99.90
8214;DHT22;4148;47.974;7.824;2023-08-21T13:21:28;33.40;99.90
8214;DHT22;4148;47.974;7.824;2023-08-21T13:23:55;33.30;99.90
8214;DHT22;4148;47.974;7.824;2023-08-21T13:26:25;33.40;99.90
8214;DHT22;4148;47.974;7.824;2023-08-21T13:28:56;33.30;99.90
8214;DHT22;4148;47.974;7.824;2023-08-21T13:31:24;33.30;99.90
8214;DHT22;4148;47.974;7.824;2023-08-21T13:33:51;33.30;99.90
8214;DHT22;4148;47.974;7.824;2023-08-21T13:36:20;33.10;99.90
8214;DHT22;4148;47.974;7.824;2023-08-21T13:38:51;33.10;99.90
8214;DHT22;4148;47.974;7.824;2023-08-21T13:41:19;33.00;99.90
8214;DHT22;4148;47.974;7.824;2023-08-21T13:43:48;33.10;99.90
8214;DHT22;4148;47.974;7.824;2023-08-21T13:46:16;33.10;99.90
8214;DHT22;4148;47.974;7.824;2023-08-21T13:48:44;33.00;99.90
8214;DHT22;4148;47.974;7.824;2023-08-21T13:51:12;33.00;99.90
8214;DHT22;4148;47.974;7.824;2023-08-21T13:53:40;32.90;99.90
8214;DHT22;4148;47.974;7.824;2023-08-21T13:56:08;32.90;99.90
8214;DHT22;4148;47.974;7.824;2023-08-21T13:58:36;32.90;99.90
8214;DHT22;4148;47.974;7.824;2023-08-21T14:01:05;32.90;99.90
8214;DHT22;4148;47.974;7.824;2023-08-21T14:03:34;32.90;99.90
8214;DHT22;4148;47.974;7.824;2023-08-21T14:06:03;32.80;99.90
8214;DHT22;4148;47.974;7.824;2023-08-21T14:08:31;32.80;99.90
8214;DHT22;4148;47.974;7.824;2023-08-21T14:10:58;32.80;99.90
8214;DHT22;4148;47.974;7.824;2023-08-21T14:13:26;32.70;99.90
8214;DHT22;4148;47.974;7.824;2023-08-21T14:15:54;32.70;99.90
8214;DHT22;4148;47.974;7.824;2023-08-21T14:18:24;32.70;99.90
8214;DHT22;4148;47.974;7.824;2023-08-21T14:20:52;32.70;99.90
8214;DHT22;4148;47.974;7.824;2023-08-21T14:23:19;32.70;99.90
8214;DHT22;4148;47.974;7.824;2023-08-21T14:25:47;32.70;99.90
8214;DHT22;4148;47.974;7.824;2023-08-21T14:28:15;32.70;99.90
8214;DHT22;4148;47.974;7.824;2023-08-21T14:30:43;32.70;99.90
8214;DHT22;4148;47.974;7.824;2023-08-21T14:33:13;32.70;99.90
8214;DHT22;4148;47.974;7.824;2023-08-21T14:35:43;32.70;99.90
8214;DHT22;4148;47.974;7.824;2023-08-21T14:38:10;32.70;99.90
8214;DHT22;4148;47.974;7.824;2023-08-21T14:40:39;32.60;99.90
8214;DHT22;4148;47.974;7.824;2023-08-21T14:43:07;32.60;99.90
8214;DHT22;4148;47.974;7.824;2023-08-21T14:45:35;32.60;99.90
8214;DHT22;4148;47.974;7.824;2023-08-21T14:48:03;32.50;99.90
8214;DHT22;4148;47.974;7.824;2023-08-21T14:50:31;32.40;99.90
8214;DHT22;4148;47.974;7.824;2023-08-21T14:53:01;32.40;99.90
8214;DHT22;4148;47.974;7.824;2023-08-21T14:55:29;32.40;99.90
8214;DHT22;4148;47.974;7.824;2023-08-21T14:57:57;32.40;99.90
8214;DHT22;4148;47.974;7.824;2023-08-21T15:00:25;32.40;99.90
8214;DHT22;4148;47.974;7.824;2023-08-21T15:02:53;32.40;99.90
8214;DHT22;4148;47.974;7.824;2023-08-21T15:05:21;32.40;99.90
8214;DHT22;4148;47.974;7.824;2023-08-21T15:07:48;32.30;99.90
8214;DHT22;4148;47.974;7.824;2023-08-21T15:10:19;32.40;99.90
8214;DHT22;4148;47.974;7.824;2023-08-21T15:12:47;32.40;99.90
8214;DHT22;4148;47.974;7.824;2023-08-21T15:15:15;32.40;99.90
8214;DHT22;4148;47.974;7.824;2023-08-21T15:17:48;32.40;99.90
8214;DHT22;4148;47.974;7.824;2023-08-21T15:20:16;32.40;99.90
8214;DHT22;4148;47.974;7.824;2023-08-21T15:22:44;32.30;99.90
8214;DHT22;4148;47.974;7.824;2023-08-21T15:25:12;32.30;99.90
8214;DHT22;4148;47.974;7.824;2023-08-21T15:27:41;32.30;99.90
8214;DHT22;4148;47.974;7.824;2023-08-21T15:30:09;32.30;99.90
8214;DHT22;4148;47.974;7.824;2023-08-21T15:32:37;32.30;99.90
8214;DHT22;4148;47.974;7.824;2023-08-21T15:35:06;32.30;99.90
8214;DHT22;4148;47.974;7.824;2023-08-21T15:37:34;32.30;99.90
8214;DHT22;4148;47.974;7.824;2023-08-21T15:40:02;32.20;99.90
8214;DHT22;4148;47.974;7.824;2023-08-21T15:42:30;32.20;99.90
8214;DHT22;4148;47.974;7.824;2023-08-21T15:45:00;32.20;99.90
8214;DHT22;4148;47.974;7.824;2023-08-21T15:47:27;32.20;99.90
8214;DHT22;4148;47.974;7.824;2023-08-21T15:50:14;32.10;99.90
8214;DHT22;4148;47.974;7.824;2023-08-21T15:52:42;32.10;99.90
8214;DHT22;4148;47.974;7.824;2023-08-21T15:55:11;32.10;99.90
8214;DHT22;4148;47.974;7.824;2023-08-21T15:57:39;32.10;99.90
8214;DHT22;4148;47.974;7.824;2023-08-21T16:00:09;32.10;99.90
8214;DHT22;4148;47.974;7.824;2023-08-21T16:02:37;32.10;99.90
8214;DHT22;4148;47.974;7.824;2023-08-21T16:05:08;32.00;99.90
8214;DHT22;4148;47.974;7.824;2023-08-21T16:07:37;31.90;99.90
8214;DHT22;4148;47.974;7.824;2023-08-21T16:10:05;31.90;99.90
8214;DHT22;4148;47.974;7.824;2023-08-21T16:12:33;31.90;99.90
8214;DHT22;4148;47.974;7.824;2023-08-21T16:15:02;31.90;99.90
8214;DHT22;4148;47.974;7.824;2023-08-21T16:17:32;31.80;99.90
8214;DHT22;4148;47.974;7.824;2023-08-21T16:20:00;31.80;99.90